createdAt,value
2023-04-18T00:02:29.566Z,9.90
2023-04-18T00:04:57.887Z,9.90
2023-04-18T00:07:26.000Z,9.90
2023-04-18T00:09:53.924Z,9.80
2023-04-18T00:12:22.016Z,9.70
2023-04-18T00:14:50.389Z,9.70
2023-04-18T00:17:18.646Z,9.60
2023-04-18T00:19:48.077Z,9.60
2023-04-18T00:22:17.326Z,9.50
2023-04-18T00:24:45.257Z,9.50
2023-04-18T00:27:13.489Z,9.40
2023-04-18T00:29:42.380Z,9.40
2023-04-18T00:32:10.600Z,9.30
2023-04-18T00:34:38.790Z,9.30
2023-04-18T00:37:08.744Z,9.20
2023-04-18T00:39:36.904Z,9.20
2023-04-18T00:42:05.206Z,9.10
2023-04-18T00:44:33.509Z,9.10
2023-04-18T00:47:01.362Z,9.00
2023-04-18T00:49:29.499Z,9.00
2023-04-18T00:51:58.092Z,8.90
2023-04-18T00:54:28.207Z,8.90
2023-04-18T00:56:56.714Z,8.80
2023-04-18T00:59:25.120Z,8.80
2023-04-18T01:01:53.304Z,8.70
2023-04-18T01:04:21.542Z,8.70
2023-04-18T01:06:49.742Z,8.60
2023-04-18T01:09:18.153Z,8.60
2023-04-18T01:11:47.427Z,8.60
2023-04-18T01:14:17.604Z,8.50
2023-04-18T01:16:46.053Z,8.40
2023-04-18T01:19:14.013Z,8.40
2023-04-18T01:21:43.689Z,8.40
2023-04-18T01:24:17.474Z,8.40
2023-04-18T01:26:48.306Z,8.30
2023-04-18T01:29:16.552Z,8.20
2023-04-18T01:31:44.462Z,8.20
2023-04-18T01:34:12.607Z,8.10
2023-04-18T01:36:42.958Z,8.10
2023-04-18T01:39:12.910Z,8.10
2023-04-18T01:41:42.701Z,8.00
2023-04-18T01:44:11.351Z,7.90
2023-04-18T01:46:40.033Z,7.90
2023-04-18T01:49:08.924Z,7.90
2023-04-18T01:51:38.730Z,7.80
2023-04-18T01:54:06.834Z,7.80
2023-04-18T01:56:34.725Z,7.70
2023-04-18T01:59:04.848Z,7.70
2023-04-18T02:01:32.914Z,7.70
2023-04-18T02:04:00.893Z,7.70
2023-04-18T02:06:28.889Z,7.60
2023-04-18T02:08:56.820Z,7.60
2023-04-18T02:11:26.348Z,7.50
2023-04-18T02:13:54.595Z,7.50
2023-04-18T02:16:24.132Z,7.50
2023-04-18T02:18:52.813Z,7.50
2023-04-18T02:21:21.890Z,7.40
2023-04-18T02:23:50.970Z,7.30
2023-04-18T02:26:18.826Z,7.30
2023-04-18T02:28:46.961Z,7.30
2023-04-18T02:31:15.889Z,7.30
2023-04-18T02:33:46.837Z,7.20
2023-04-18T02:36:14.691Z,7.20
2023-04-18T02:38:44.995Z,7.20
2023-04-18T02:41:15.358Z,7.10
2023-04-18T02:43:43.633Z,7.10
2023-04-18T02:46:11.767Z,7.00
2023-04-18T02:48:40.117Z,7.00
2023-04-18T02:51:11.148Z,7.00
2023-04-18T02:53:40.305Z,6.90
2023-04-18T02:56:08.814Z,7.00
2023-04-18T02:58:56.904Z,6.90
2023-04-18T03:01:46.666Z,6.90
2023-04-18T03:04:17.678Z,6.80
2023-04-18T03:07:07.184Z,6.80
2023-04-18T03:09:38.132Z,6.80
2023-04-18T03:12:17.964Z,6.70
2023-04-18T03:14:47.257Z,6.70
2023-04-18T03:17:16.111Z,6.70
2023-04-18T03:19:48.928Z,6.70
2023-04-18T03:22:21.636Z,6.60
2023-04-18T03:24:57.772Z,6.60
2023-04-18T03:27:41.018Z,6.50
2023-04-18T03:30:11.995Z,6.50
2023-04-18T03:32:42.630Z,6.50
2023-04-18T03:35:11.160Z,6.50
2023-04-18T03:37:40.948Z,6.40
2023-04-18T03:40:11.466Z,6.40
2023-04-18T03:42:39.376Z,6.40
2023-04-18T03:45:08.641Z,6.40
2023-04-18T03:47:37.979Z,6.30
2023-04-18T03:50:07.618Z,6.30
2023-04-18T03:52:35.920Z,6.30
2023-04-18T03:55:07.870Z,6.30
2023-04-18T03:57:36.102Z,6.30
2023-04-18T04:00:09.106Z,6.20
2023-04-18T04:02:57.732Z,6.20
2023-04-18T04:05:25.859Z,6.20
2023-04-18T04:07:54.103Z,6.20
2023-04-18T04:10:23.460Z,6.20
2023-04-18T04:12:52.300Z,6.10
2023-04-18T04:15:20.846Z,6.10
2023-04-18T04:17:55.615Z,6.10
2023-04-18T04:20:24.961Z,6.10
2023-04-18T04:23:01.117Z,6.10
2023-04-18T04:25:33.212Z,6.10
2023-04-18T04:28:04.509Z,6.10
2023-04-18T04:30:38.210Z,6.10
2023-04-18T04:33:07.534Z,6.20
2023-04-18T04:35:36.635Z,6.20
2023-04-18T04:38:05.699Z,6.20
2023-04-18T04:40:43.870Z,6.20
2023-04-18T04:43:15.640Z,6.30
2023-04-18T04:45:45.398Z,6.30
2023-04-18T04:48:13.530Z,6.40
2023-04-18T04:50:43.434Z,6.40
2023-04-18T04:53:13.074Z,6.40
2023-04-18T04:55:41.353Z,6.40
2023-04-18T04:58:10.949Z,6.40
2023-04-18T05:01:01.761Z,6.40
2023-04-18T05:03:30.756Z,6.40
2023-04-18T05:05:58.973Z,6.40
2023-04-18T05:08:27.273Z,6.40
2023-04-18T05:10:55.773Z,6.50
2023-04-18T05:13:25.177Z,6.50
2023-04-18T05:15:53.078Z,6.60
2023-04-18T05:18:21.128Z,6.60
2023-04-18T05:20:49.288Z,6.70
2023-04-18T05:23:17.507Z,6.70
2023-04-18T05:25:45.687Z,6.80
2023-04-18T05:28:13.903Z,6.80
2023-04-18T05:30:43.397Z,6.90
2023-04-18T05:33:11.510Z,6.90
2023-04-18T05:35:39.476Z,7.00
2023-04-18T05:38:07.519Z,7.00
2023-04-18T05:40:35.512Z,7.10
2023-04-18T05:43:03.464Z,7.10
2023-04-18T05:45:31.339Z,7.20
2023-04-18T05:48:00.644Z,7.20
2023-04-18T05:50:28.931Z,7.30
2023-04-18T05:52:59.439Z,7.30
2023-04-18T05:55:27.284Z,7.40
2023-04-18T05:57:55.248Z,7.50
2023-04-18T06:00:23.622Z,7.50
2023-04-18T06:02:51.674Z,7.60
2023-04-18T06:05:21.508Z,7.60
2023-04-18T06:07:49.623Z,7.70
2023-04-18T06:10:17.657Z,7.70
2023-04-18T06:12:45.713Z,7.70
2023-04-18T06:15:13.788Z,7.80
2023-04-18T06:17:41.829Z,7.80
2023-04-18T06:20:10.997Z,7.90
2023-04-18T06:22:40.274Z,8.00
2023-04-18T06:25:10.151Z,8.00
2023-04-18T06:27:38.307Z,8.10
2023-04-18T06:30:07.682Z,8.10
2023-04-18T06:32:35.972Z,8.20
2023-04-18T06:35:03.956Z,8.20
2023-04-18T06:37:32.167Z,8.30
2023-04-18T06:40:01.710Z,8.40
2023-04-18T06:42:29.828Z,8.50
2023-04-18T06:44:57.850Z,8.60
2023-04-18T06:47:25.889Z,8.70
2023-04-18T06:49:54.053Z,8.70
2023-04-18T06:52:22.070Z,8.80
2023-04-18T06:54:50.312Z,8.90
2023-04-18T06:57:19.643Z,8.90
2023-04-18T06:59:47.512Z,9.00
2023-04-18T07:02:15.826Z,9.10
2023-04-18T07:04:43.927Z,9.20
2023-04-18T07:07:12.059Z,9.30
2023-04-18T07:09:39.906Z,9.40
2023-04-18T07:12:08.313Z,9.40
2023-04-18T07:14:37.587Z,9.50
2023-04-18T07:17:05.787Z,9.60
2023-04-18T07:19:33.832Z,9.60
2023-04-18T07:22:01.993Z,9.80
2023-04-18T07:24:30.379Z,9.80
2023-04-18T07:26:58.366Z,9.90
2023-04-18T07:29:26.481Z,9.90
2023-04-18T07:31:55.992Z,10.10
2023-04-18T07:34:23.853Z,10.10
2023-04-18T07:36:52.239Z,10.20
2023-04-18T07:39:20.206Z,10.30
2023-04-18T07:41:48.172Z,10.40
2023-04-18T07:44:16.508Z,10.60
2023-04-18T07:46:44.480Z,10.70
2023-04-18T07:49:14.319Z,10.80
2023-04-18T07:51:42.645Z,10.90
2023-04-18T07:54:11.545Z,11.00
2023-04-18T07:56:39.435Z,11.10
2023-04-18T07:59:07.397Z,11.20
2023-04-18T08:01:35.620Z,11.30
2023-04-18T08:04:04.359Z,11.50
2023-04-18T08:06:34.564Z,11.60
2023-04-18T08:09:05.576Z,11.70
2023-04-18T08:11:34.744Z,11.90
2023-04-18T08:14:03.217Z,12.00
2023-04-18T08:16:31.349Z,12.10
2023-04-18T08:18:59.575Z,12.20
2023-04-18T08:21:27.695Z,12.30
2023-04-18T08:23:57.189Z,12.40
2023-04-18T08:26:25.145Z,12.50
2023-04-18T08:28:53.267Z,12.50
2023-04-18T08:31:21.209Z,12.50
2023-04-18T08:33:49.336Z,12.60
2023-04-18T08:36:17.275Z,12.80
2023-04-18T08:38:45.632Z,13.20
2023-04-18T08:41:17.424Z,13.90
2023-04-18T08:43:49.255Z,14.90
2023-04-18T08:46:17.358Z,16.10
2023-04-18T08:48:46.835Z,17.20
2023-04-18T08:51:14.676Z,18.10
2023-04-18T08:53:45.202Z,18.70
2023-04-18T08:56:16.297Z,19.10
2023-04-18T08:58:45.110Z,19.50
2023-04-18T09:01:13.527Z,20.10
2023-04-18T09:03:43.192Z,20.80
2023-04-18T09:06:13.646Z,21.60
2023-04-18T09:08:43.287Z,22.40
2023-04-18T09:11:28.902Z,23.20
2023-04-18T09:13:59.014Z,23.90
2023-04-18T09:16:29.141Z,24.50
2023-04-18T09:19:12.917Z,24.90
2023-04-18T09:21:42.209Z,25.00
2023-04-18T09:24:21.151Z,24.80
2023-04-18T09:26:51.348Z,24.40
2023-04-18T09:29:22.538Z,23.90
2023-04-18T09:31:59.658Z,23.40
2023-04-18T09:34:29.023Z,22.80
2023-04-18T09:37:15.235Z,22.20
2023-04-18T09:39:44.627Z,21.60
2023-04-18T09:42:14.769Z,21.10
2023-04-18T09:45:03.920Z,20.70
2023-04-18T09:47:34.850Z,20.20
2023-04-18T09:50:03.699Z,19.80
2023-04-18T09:52:36.083Z,19.50
2023-04-18T09:55:05.963Z,19.30
2023-04-18T09:57:38.745Z,19.10
2023-04-18T10:00:13.966Z,18.90
2023-04-18T10:02:49.804Z,18.80
2023-04-18T10:05:20.975Z,18.60
2023-04-18T10:07:51.057Z,18.60
2023-04-18T10:10:19.611Z,18.60
2023-04-18T10:12:50.766Z,18.60
2023-04-18T10:15:21.096Z,18.80
2023-04-18T10:20:27.836Z,18.90
2023-04-18T10:22:57.014Z,19.10
2023-04-18T10:25:49.956Z,19.10
2023-04-18T10:28:21.024Z,19.10
2023-04-18T10:31:07.979Z,19.10
2023-04-18T10:33:42.527Z,19.10
2023-04-18T10:36:20.169Z,19.10
2023-04-18T10:38:50.612Z,19.00
2023-04-18T10:41:22.379Z,19.00
2023-04-18T10:44:14.855Z,18.90
2023-04-18T10:46:44.526Z,18.90
2023-04-18T10:49:16.972Z,18.80
2023-04-18T10:51:45.518Z,18.80
2023-04-18T10:54:20.814Z,18.80
2023-04-18T10:56:56.722Z,18.90
2023-04-18T10:59:27.157Z,19.10
2023-04-18T11:01:58.437Z,19.40
2023-04-18T11:04:26.685Z,19.80
2023-04-18T11:06:57.267Z,20.10
2023-04-18T11:09:25.904Z,20.50
2023-04-18T11:12:05.613Z,21.00
2023-04-18T11:14:45.457Z,21.40
2023-04-18T11:17:18.140Z,21.80
2023-04-18T11:19:46.493Z,22.10
2023-04-18T11:22:15.357Z,22.30
2023-04-18T11:24:43.859Z,22.40
2023-04-18T11:27:13.063Z,22.60
2023-04-18T11:29:40.913Z,22.80
2023-04-18T11:32:11.197Z,22.80
2023-04-18T11:34:39.107Z,22.80
2023-04-18T11:37:08.418Z,22.90
2023-04-18T11:39:41.940Z,22.80
2023-04-18T11:42:10.438Z,22.80
2023-04-18T11:44:40.068Z,22.70
2023-04-18T11:47:28.798Z,22.50
2023-04-18T11:49:58.324Z,22.30
2023-04-18T11:52:28.353Z,22.10
2023-04-18T11:54:57.072Z,21.90
2023-04-18T11:57:26.632Z,21.70
2023-04-18T11:59:57.377Z,21.90
2023-04-18T12:02:39.828Z,22.10
2023-04-18T12:05:08.736Z,22.50
2023-04-18T12:07:38.917Z,22.80
2023-04-18T12:10:08.900Z,23.10
2023-04-18T12:12:37.240Z,23.50
2023-04-18T12:15:10.112Z,23.70
2023-04-18T12:17:39.414Z,23.80
2023-04-18T12:20:10.248Z,23.70
2023-04-18T12:22:46.089Z,23.70
2023-04-18T12:25:20.245Z,23.50
2023-04-18T12:27:50.767Z,23.40
2023-04-18T12:30:21.308Z,23.20
2023-04-18T12:32:52.824Z,23.00
2023-04-18T12:35:22.022Z,22.90
2023-04-18T12:37:51.455Z,22.80
2023-04-18T12:40:20.380Z,22.70
2023-04-18T12:42:48.619Z,22.60
2023-04-18T12:45:18.055Z,22.40
2023-04-18T12:47:47.675Z,22.20
2023-04-18T12:50:19.999Z,22.10
2023-04-18T12:52:48.805Z,21.90
2023-04-18T12:55:16.775Z,21.70
2023-04-18T12:57:45.473Z,21.60
2023-04-18T13:00:14.832Z,21.40
2023-04-18T13:02:44.892Z,21.30
2023-04-18T13:05:15.167Z,21.20
2023-04-18T13:07:44.893Z,21.10
2023-04-18T13:10:14.120Z,21.10
2023-04-18T13:12:42.814Z,21.10
2023-04-18T13:15:11.435Z,21.10
2023-04-18T13:17:40.318Z,21.10
2023-04-18T13:20:10.716Z,21.20
2023-04-18T13:22:39.005Z,21.40
2023-04-18T13:25:10.480Z,21.70
2023-04-18T13:27:41.318Z,21.90
2023-04-18T13:30:11.635Z,22.10
2023-04-18T13:32:40.474Z,22.10
2023-04-18T13:35:10.373Z,22.20
2023-04-18T13:37:39.042Z,22.20
2023-04-18T13:40:09.637Z,22.20
2023-04-18T13:42:38.345Z,22.20
2023-04-18T13:45:07.495Z,22.10
2023-04-18T13:47:35.960Z,22.10
2023-04-18T13:50:04.029Z,21.90
2023-04-18T13:52:32.131Z,21.80
2023-04-18T13:55:00.857Z,21.70
2023-04-18T13:57:32.045Z,21.60
2023-04-18T14:00:00.614Z,21.40
2023-04-18T14:02:28.613Z,21.30
2023-04-18T14:04:58.242Z,21.20
2023-04-18T14:07:26.662Z,21.20
2023-04-18T14:09:54.546Z,21.20
2023-04-18T14:12:22.694Z,21.20
2023-04-18T14:14:52.441Z,21.30
2023-04-18T14:17:20.696Z,21.40
2023-04-18T14:19:49.369Z,21.60
2023-04-18T14:22:17.377Z,21.70
2023-04-18T14:24:45.504Z,21.80
2023-04-18T14:27:13.513Z,21.90
2023-04-18T14:29:41.331Z,21.80
2023-04-18T14:32:10.739Z,21.80
2023-04-18T14:34:38.892Z,21.70
2023-04-18T14:37:07.262Z,21.70
2023-04-18T14:39:35.101Z,21.60
2023-04-18T14:42:03.459Z,21.70
2023-04-18T14:44:31.857Z,21.80
2023-04-18T14:47:00.149Z,21.80
2023-04-18T14:49:29.477Z,21.80
2023-04-18T14:51:57.416Z,21.70
2023-04-18T14:54:25.252Z,21.60
2023-04-18T14:56:53.345Z,21.50
2023-04-18T14:59:21.274Z,21.50
2023-04-18T15:01:49.486Z,21.40
2023-04-18T15:04:17.602Z,21.30
2023-04-18T15:06:47.427Z,21.20
2023-04-18T15:09:15.890Z,21.10
2023-04-18T15:11:43.931Z,21.10
2023-04-18T15:14:11.840Z,21.00
2023-04-18T15:16:40.748Z,20.90
2023-04-18T15:19:09.006Z,20.90
2023-04-18T15:21:36.879Z,20.80
2023-04-18T15:24:06.948Z,20.70
2023-04-18T15:26:34.826Z,20.60
2023-04-18T15:29:04.044Z,20.40
2023-04-18T15:31:32.472Z,20.30
2023-04-18T15:34:00.841Z,20.20
2023-04-18T15:36:28.924Z,20.10
2023-04-18T15:38:56.846Z,20.00
2023-04-18T15:41:26.432Z,19.90
2023-04-18T15:43:54.376Z,19.90
2023-04-18T15:46:22.526Z,19.90
2023-04-18T15:48:50.748Z,19.90
2023-04-18T15:51:18.994Z,20.00
2023-04-18T15:53:46.995Z,20.00
2023-04-18T15:56:14.983Z,20.00
2023-04-18T15:58:44.299Z,20.00
2023-04-18T16:01:15.911Z,19.90
2023-04-18T16:03:44.197Z,20.00
2023-04-18T16:06:12.675Z,20.00
2023-04-18T16:08:40.922Z,20.10
2023-04-18T16:11:09.006Z,20.30
2023-04-18T16:13:38.402Z,20.40
2023-04-18T16:16:08.533Z,20.50
2023-04-18T16:18:36.675Z,20.70
2023-04-18T16:21:04.867Z,20.70
2023-04-18T16:23:33.756Z,20.70
2023-04-18T16:26:01.666Z,20.60
2023-04-18T16:28:30.652Z,20.50
2023-04-18T16:30:58.550Z,20.40
2023-04-18T16:33:28.462Z,20.30
2023-04-18T16:35:58.608Z,20.20
2023-04-18T16:38:27.524Z,20.20
2023-04-18T16:40:56.991Z,20.20
2023-04-18T16:43:27.010Z,20.20
2023-04-18T16:45:56.516Z,20.10
2023-04-18T16:48:25.155Z,20.00
2023-04-18T16:50:54.368Z,19.90
2023-04-18T16:53:22.628Z,19.80
2023-04-18T16:55:52.148Z,19.70
2023-04-18T16:58:20.285Z,19.60
2023-04-18T17:00:48.710Z,19.50
2023-04-18T17:03:16.942Z,19.40
2023-04-18T17:05:45.628Z,19.30
2023-04-18T17:08:14.949Z,19.20
2023-04-18T17:10:44.466Z,19.20
2023-04-18T17:13:12.347Z,19.10
2023-04-18T17:15:40.586Z,19.00
2023-04-18T17:18:08.615Z,19.00
2023-04-18T17:20:37.111Z,18.80
2023-04-18T17:23:05.077Z,18.70
2023-04-18T17:25:34.669Z,18.60
2023-04-18T17:28:03.337Z,18.60
2023-04-18T17:30:31.621Z,18.50
2023-04-18T17:32:59.487Z,18.50
2023-04-18T17:35:27.475Z,18.40
2023-04-18T17:37:55.489Z,18.30
2023-04-18T17:40:23.548Z,18.20
2023-04-18T17:42:52.943Z,18.20
2023-04-18T17:45:21.244Z,18.10
2023-04-18T17:47:50.832Z,18.00
2023-04-18T17:50:19.133Z,17.90
2023-04-18T17:52:47.353Z,17.90
2023-04-18T17:55:15.630Z,17.80
2023-04-18T17:57:43.667Z,17.70
2023-04-18T18:00:14.439Z,17.60
2023-04-18T18:02:44.021Z,17.50
2023-04-18T18:05:14.245Z,17.50
2023-04-18T18:07:43.346Z,17.40
2023-04-18T18:10:12.574Z,17.30
2023-04-18T18:12:41.096Z,17.20
2023-04-18T18:15:09.888Z,17.20
2023-04-18T18:17:39.543Z,17.10
2023-04-18T18:20:09.762Z,17.10
2023-04-18T18:22:38.095Z,17.00
2023-04-18T18:25:06.681Z,17.00
2023-04-18T18:27:34.695Z,17.00
2023-04-18T18:30:03.217Z,16.90
2023-04-18T18:32:31.144Z,16.90
2023-04-18T18:35:01.753Z,16.90
2023-04-18T18:37:29.820Z,16.80
2023-04-18T18:39:58.657Z,16.80
2023-04-18T18:42:26.606Z,16.70
2023-04-18T18:44:54.776Z,16.70
2023-04-18T18:47:22.911Z,16.70
2023-04-18T18:49:50.832Z,16.70
2023-04-18T18:52:20.357Z,16.70
2023-04-18T18:54:48.281Z,16.60
2023-04-18T18:57:16.443Z,16.60
2023-04-18T18:59:44.434Z,16.60
2023-04-18T19:02:12.560Z,16.60
2023-04-18T19:04:40.851Z,16.50
2023-04-18T19:07:08.921Z,16.50
2023-04-18T19:09:38.383Z,16.40
2023-04-18T19:12:07.035Z,16.50
2023-04-18T19:14:35.231Z,16.40
2023-04-18T19:17:03.424Z,16.40
2023-04-18T19:19:31.844Z,16.40
2023-04-18T19:22:01.097Z,16.30
2023-04-18T19:24:29.117Z,16.40
2023-04-18T19:26:59.536Z,16.30
2023-04-18T19:29:27.594Z,16.30
2023-04-18T19:31:56.024Z,16.30
2023-04-18T19:34:23.977Z,16.30
2023-04-18T19:36:52.055Z,16.30
2023-04-18T19:39:20.099Z,16.30
2023-04-18T19:41:48.485Z,16.20
2023-04-18T19:44:17.893Z,16.20
2023-04-18T19:46:45.957Z,16.20
2023-04-18T19:49:14.696Z,16.20
2023-04-18T19:51:45.721Z,16.20
2023-04-18T19:54:14.079Z,16.20
2023-04-18T19:56:42.098Z,16.20
2023-04-18T19:59:10.000Z,16.20
2023-04-18T20:01:39.532Z,16.10
2023-04-18T20:04:08.395Z,16.10
2023-04-18T20:06:37.707Z,16.10
2023-04-18T20:09:05.758Z,16.10
2023-04-18T20:11:33.836Z,16.10
2023-04-18T20:14:02.553Z,16.10
2023-04-18T20:16:30.458Z,16.10
2023-04-18T20:19:01.596Z,16.00
2023-04-18T20:21:29.709Z,16.00
2023-04-18T20:23:58.237Z,16.00
2023-04-18T20:26:26.527Z,16.00
2023-04-18T20:28:54.416Z,16.00
2023-04-18T20:31:22.473Z,16.00
2023-04-18T20:33:50.395Z,16.00
2023-04-18T20:36:19.873Z,15.90
2023-04-18T20:38:50.248Z,16.00
2023-04-18T20:41:20.704Z,15.90
2023-04-18T20:43:50.669Z,15.90
2023-04-18T20:46:18.724Z,15.90
2023-04-18T20:48:46.744Z,15.90
2023-04-18T20:51:14.708Z,15.90
2023-04-18T20:53:45.261Z,15.90
2023-04-18T20:56:13.135Z,15.80
2023-04-18T20:58:41.890Z,15.80
2023-04-18T21:01:09.894Z,15.80
2023-04-18T21:03:38.113Z,15.80
2023-04-18T21:06:06.326Z,15.80
2023-04-18T21:08:37.804Z,15.80
2023-04-18T21:11:07.195Z,15.70
2023-04-18T21:13:35.744Z,15.70
2023-04-18T21:16:07.595Z,15.70
2023-04-18T21:18:35.692Z,15.70
2023-04-18T21:21:03.972Z,15.60
2023-04-18T21:23:31.887Z,15.70
2023-04-18T21:25:59.846Z,15.60
2023-04-18T21:28:29.230Z,15.60
2023-04-18T21:30:57.081Z,15.60
2023-04-18T21:33:26.223Z,15.60
2023-04-18T21:35:54.224Z,15.50
2023-04-18T21:38:25.469Z,15.50
2023-04-18T21:40:53.336Z,15.50
2023-04-18T21:43:21.463Z,15.50
2023-04-18T21:45:50.766Z,15.50
2023-04-18T21:48:18.852Z,15.50
2023-04-18T21:50:46.721Z,15.50
2023-04-18T21:53:15.053Z,15.40
2023-04-18T21:55:42.964Z,15.50
2023-04-18T21:58:11.070Z,15.40
2023-04-18T22:00:38.990Z,15.40
2023-04-18T22:03:08.780Z,15.40
2023-04-18T22:05:38.918Z,15.40
2023-04-18T22:08:07.345Z,15.40
2023-04-18T22:10:35.632Z,15.40
2023-04-18T22:13:05.318Z,15.30
2023-04-18T22:15:33.532Z,15.40
2023-04-18T22:18:01.700Z,15.40
2023-04-18T22:20:31.551Z,15.40
2023-04-18T22:22:59.686Z,15.30
2023-04-18T22:25:27.574Z,15.30
2023-04-18T22:27:55.767Z,15.30
2023-04-18T22:30:23.663Z,15.30
2023-04-18T22:32:51.820Z,15.30
2023-04-18T22:35:20.061Z,15.30
2023-04-18T22:37:49.558Z,15.30
2023-04-18T22:40:17.573Z,15.30
2023-04-18T22:42:45.796Z,15.30
2023-04-18T22:45:14.575Z,15.30
2023-04-18T22:47:42.674Z,15.30
2023-04-18T22:50:11.133Z,15.20
2023-04-18T22:52:39.208Z,15.20
2023-04-18T22:55:09.333Z,15.20
2023-04-18T22:57:38.972Z,15.20
2023-04-18T23:00:10.018Z,15.20
2023-04-18T23:02:38.568Z,15.20
2023-04-18T23:05:08.196Z,15.20
2023-04-18T23:07:36.090Z,15.20
2023-04-18T23:10:06.609Z,15.20
2023-04-18T23:12:35.901Z,15.20
2023-04-18T23:15:03.928Z,15.20
2023-04-18T23:17:31.874Z,15.10
2023-04-18T23:19:59.991Z,15.10
2023-04-18T23:22:30.146Z,15.10
2023-04-18T23:24:58.212Z,15.10
2023-04-18T23:27:26.152Z,15.10
2023-04-18T23:29:55.708Z,15.10
2023-04-18T23:32:23.946Z,15.10
2023-04-18T23:34:52.304Z,15.00
2023-04-18T23:37:20.206Z,15.00
2023-04-18T23:39:48.320Z,15.10
2023-04-18T23:42:16.276Z,15.00
2023-04-18T23:44:44.236Z,15.00
2023-04-18T23:47:13.760Z,15.00
2023-04-18T23:49:41.827Z,15.00
2023-04-18T23:52:09.689Z,15.00
2023-04-18T23:54:37.672Z,15.00
2023-04-18T23:57:06.041Z,14.90
2023-04-18T23:59:34.013Z,14.90
